Atlantic - Newfoundland: Past 24 Hour Conditions

 

St. Anthony Airport

02:30 PM NDT 22 August 2014
This table is a summary of hourly weather conditions for the past 24 hours.
Date / Time
(NDT)
Wind(knots) Conditions Visibility(km) Pressure(kPa) Air tempC) Relative humidity(%) Dew pointC)
22 August 2014
14:30 N 11 gust 20 Mist 6 102.0 14 87 12
13:30 N 16 gust 22 Haze 8 102.0 14 82 11
12:30 N 19 gust 25 Cloudy 16 102.0 15 74 11
11:30 N 15 gust 22 Cloudy 16 102.1 15 80 11
10:30 NNW 11 gust 16 Cloudy 16 102.1 13 84 11
9:30 NNW 9 Cloudy 16 102.1 12 89 10
8:30 NNW 10 Cloudy 16 102.1 12 88 10
7:30 NW 9 Cloudy 16 102.1 11 91 10
6:30 NNW 7 Cloudy 16 102.0 11 90 10
5:30 NNW 8 Cloudy 16 102.0 11 90 10
4:30 NNW 15 Cloudy 16 101.9 12 88 10
3:30 N 12 gust 19 Mostly Cloudy 16 101.9 11 91 10
2:30 NNW 13 gust 18 Cloudy 16 101.9 11 91 10
1:30 N 17 gust 23 Cloudy 16 101.9 12 90 10
0:30 NNW 14 gust 21 Cloudy 16 101.9 12 90 11
21 August 2014
23:30 NNW 12 gust 17 Cloudy 16 101.9 12 92 11
22:30 NNW 12 Cloudy 16 101.9 13 92 12
21:30 N 14 gust 21 Cloudy 16 101.9 13 92 12
20:30 N 13 Cloudy 16 101.8 13 91 12
19:30 NNW 10 gust 15 Cloudy 16 101.8 13 92 12
18:30 NNW 13 gust 19 Light Rain 16 101.7 14 94 13
17:30 N 13 gust 19 Cloudy 16 101.7 15 91 13
16:30 N 13 Light Rain 2 101.7 14 95 13
15:30 N 15 gust 21 Cloudy 16 101.6 15 90 13
14:30 N 12 gust 21 Mist 8 101.6 15 90 13
 
Map of Atlantic - Newfoundland marine weather areas Southwestern Grand Banks - 44138 Banquereau - 44139 Tail of the Bank - 44140 Nickerson Bank - 44251 Northeast Burgeo Bank - 44255 Blanc-Sablon Airport Cap Whittle Chevery Natashquan Airport Heath Point Miscou Island Grand Étang Ingonish Beach North Mountain St.Paul Island J.A. Douglas McCurdy Sydney Airport Charlottetown Airport East Point North Cape Argentia Bonavista Burgeo Cape Race Corner Brook Daniel's Harbour Englee Ferolle Point La Scie Port aux Basques Rocky Harbour Sagona Island St. Anthony Airport St. John's Int'l Airport St. Lawrence Stephenville Airport Twillingate Winterland Wreckhouse Cartwright Airport Mary's Harbour Grates Cove Pool's Island Marticot Island Long Pond Îles de la Madeleine Airport
Legend: buoyBuoy land stationLand Station